sensor_id;sensor_type;location;lat;lon;timestamp;pressure;altitude;pressure_sealevel;temperature;humidity
13422;BME280;6782;55.904;13.396;2022-10-22T00:00:19;100068.41;;;10.83;100.00
13422;BME280;6782;55.904;13.396;2022-10-22T00:03:06;100061.50;;;10.79;100.00
13422;BME280;6782;55.904;13.396;2022-10-22T00:05:54;100063.00;;;10.86;100.00
13422;BME280;6782;55.904;13.396;2022-10-22T00:08:41;100068.44;;;10.82;100.00
13422;BME280;6782;55.904;13.396;2022-10-22T00:11:28;100072.81;;;10.83;100.00
13422;BME280;6782;55.904;13.396;2022-10-22T00:14:17;100061.91;;;10.92;100.00
13422;BME280;6782;55.904;13.396;2022-10-22T00:17:04;100069.00;;;10.91;100.00
13422;BME280;6782;55.904;13.396;2022-10-22T00:19:51;100067.34;;;10.89;100.00
13422;BME280;6782;55.904;13.396;2022-10-22T00:22:38;100074.31;;;10.90;100.00
13422;BME280;6782;55.904;13.396;2022-10-22T00:25:26;100072.53;;;10.90;100.00
13422;BME280;6782;55.904;13.396;2022-10-22T00:28:13;100081.47;;;10.86;100.00
13422;BME280;6782;55.904;13.396;2022-10-22T00:31:02;100076.16;;;10.88;100.00
13422;BME280;6782;55.904;13.396;2022-10-22T00:33:49;100082.22;;;10.90;100.00
13422;BME280;6782;55.904;13.396;2022-10-22T00:36:37;100077.66;;;10.95;100.00
13422;BME280;6782;55.904;13.396;2022-10-22T00:39:24;100075.38;;;10.84;100.00
13422;BME280;6782;55.904;13.396;2022-10-22T00:42:16;100080.66;;;10.84;100.00
13422;BME280;6782;55.904;13.396;2022-10-22T00:45:15;100076.78;;;10.94;100.00
13422;BME280;6782;55.904;13.396;2022-10-22T00:48:06;100072.16;;;10.76;100.00
13422;BME280;6782;55.904;13.396;2022-10-22T00:50:57;100079.78;;;10.84;100.00
13422;BME280;6782;55.904;13.396;2022-10-22T00:53:47;100077.97;;;10.86;100.00
13422;BME280;6782;55.904;13.396;2022-10-22T00:56:38;100070.78;;;10.91;100.00
13422;BME280;6782;55.904;13.396;2022-10-22T00:59:25;100081.63;;;10.82;100.00
13422;BME280;6782;55.904;13.396;2022-10-22T01:02:12;100072.91;;;10.80;100.00
13422;BME280;6782;55.904;13.396;2022-10-22T01:05:01;100071.19;;;10.79;100.00
13422;BME280;6782;55.904;13.396;2022-10-22T01:07:51;100071.31;;;10.76;100.00
13422;BME280;6782;55.904;13.396;2022-10-22T01:10:48;100064.47;;;10.70;100.00
13422;BME280;6782;55.904;13.396;2022-10-22T01:13:48;100069.56;;;10.75;100.00
13422;BME280;6782;55.904;13.396;2022-10-22T01:16:40;100072.91;;;10.80;100.00
13422;BME280;6782;55.904;13.396;2022-10-22T01:19:52;100074.84;;;10.75;100.00
13422;BME280;6782;55.904;13.396;2022-10-22T01:22:54;100074.75;;;10.78;100.00
13422;BME280;6782;55.904;13.396;2022-10-22T01:25:53;100067.84;;;10.74;100.00
13422;BME280;6782;55.904;13.396;2022-10-22T01:28:54;100076.59;;;10.76;100.00
13422;BME280;6782;55.904;13.396;2022-10-22T01:31:45;100082.56;;;10.81;100.00
13422;BME280;6782;55.904;13.396;2022-10-22T01:34:33;100093.91;;;10.83;100.00
13422;BME280;6782;55.904;13.396;2022-10-22T01:37:25;100097.25;;;10.88;100.00
13422;BME280;6782;55.904;13.396;2022-10-22T01:40:15;100097.44;;;10.82;100.00
13422;BME280;6782;55.904;13.396;2022-10-22T01:43:04;100096.34;;;10.89;100.00
13422;BME280;6782;55.904;13.396;2022-10-22T01:45:56;100100.69;;;10.90;100.00
13422;BME280;6782;55.904;13.396;2022-10-22T01:48:53;100103.06;;;10.97;100.00
13422;BME280;6782;55.904;13.396;2022-10-22T01:51:53;100111.94;;;10.95;100.00
13422;BME280;6782;55.904;13.396;2022-10-22T01:54:51;100106.03;;;10.88;100.00
13422;BME280;6782;55.904;13.396;2022-10-22T01:57:49;100105.34;;;10.83;100.00
13422;BME280;6782;55.904;13.396;2022-10-22T02:00:44;100106.31;;;10.81;100.00
13422;BME280;6782;55.904;13.396;2022-10-22T02:03:39;100116.84;;;10.81;100.00
13422;BME280;6782;55.904;13.396;2022-10-22T02:06:29;100114.25;;;10.79;100.00
13422;BME280;6782;55.904;13.396;2022-10-22T02:09:19;100115.22;;;10.77;100.00
13422;BME280;6782;55.904;13.396;2022-10-22T02:12:08;100111.69;;;10.78;100.00
13422;BME280;6782;55.904;13.396;2022-10-22T02:14:56;100109.13;;;10.75;100.00
13422;BME280;6782;55.904;13.396;2022-10-22T02:17:46;100111.59;;;10.79;100.00
13422;BME280;6782;55.904;13.396;2022-10-22T02:20:35;100114.22;;;10.81;100.00
13422;BME280;6782;55.904;13.396;2022-10-22T02:23:23;100120.38;;;10.80;100.00
13422;BME280;6782;55.904;13.396;2022-10-22T02:26:14;100119.59;;;10.78;100.00
13422;BME280;6782;55.904;13.396;2022-10-22T02:29:10;100123.19;;;10.75;100.00
13422;BME280;6782;55.904;13.396;2022-10-22T02:32:00;100111.22;;;10.65;100.00
13422;BME280;6782;55.904;13.396;2022-10-22T02:34:50;100125.88;;;10.74;100.00
13422;BME280;6782;55.904;13.396;2022-10-22T02:37:40;100131.13;;;10.74;100.00
13422;BME280;6782;55.904;13.396;2022-10-22T02:40:29;100142.56;;;10.74;100.00
13422;BME280;6782;55.904;13.396;2022-10-22T02:43:16;100141.50;;;10.80;100.00
13422;BME280;6782;55.904;13.396;2022-10-22T02:46:04;100151.25;;;10.78;100.00
13422;BME280;6782;55.904;13.396;2022-10-22T02:48:51;100149.31;;;10.83;100.00
13422;BME280;6782;55.904;13.396;2022-10-22T02:51:38;100151.00;;;10.84;100.00
13422;BME280;6782;55.904;13.396;2022-10-22T02:54:26;100152.69;;;10.86;100.00
13422;BME280;6782;55.904;13.396;2022-10-22T02:57:13;100171.13;;;10.88;100.00
13422;BME280;6782;55.904;13.396;2022-10-22T03:00:00;100171.88;;;10.91;100.00
13422;BME280;6782;55.904;13.396;2022-10-22T03:02:47;100177.16;;;10.91;100.00
13422;BME280;6782;55.904;13.396;2022-10-22T03:05:34;100179.94;;;10.87;100.00
13422;BME280;6782;55.904;13.396;2022-10-22T03:08:22;100173.13;;;10.80;100.00
13422;BME280;6782;55.904;13.396;2022-10-22T03:11:10;100181.94;;;10.79;100.00
13422;BME280;6782;55.904;13.396;2022-10-22T03:13:57;100192.22;;;10.88;100.00
13422;BME280;6782;55.904;13.396;2022-10-22T03:16:44;100192.22;;;10.88;100.00
13422;BME280;6782;55.904;13.396;2022-10-22T03:19:31;100198.25;;;10.91;100.00
13422;BME280;6782;55.904;13.396;2022-10-22T03:22:21;100207.00;;;10.92;100.00
13422;BME280;6782;55.904;13.396;2022-10-22T03:25:12;100214.84;;;10.95;100.00
13422;BME280;6782;55.904;13.396;2022-10-22T03:28:06;100225.38;;;10.95;100.00
13422;BME280;6782;55.904;13.396;2022-10-22T03:30:54;100232.50;;;10.93;100.00
13422;BME280;6782;55.904;13.396;2022-10-22T03:33:41;100251.78;;;10.95;100.00
13422;BME280;6782;55.904;13.396;2022-10-22T03:36:28;100261.63;;;11.16;100.00
13422;BME280;6782;55.904;13.396;2022-10-22T03:39:17;100267.41;;;11.27;100.00
13422;BME280;6782;55.904;13.396;2022-10-22T03:42:06;100267.34;;;11.02;100.00
13422;BME280;6782;55.904;13.396;2022-10-22T03:44:55;100268.63;;;10.91;100.00
13422;BME280;6782;55.904;13.396;2022-10-22T03:47:42;100271.97;;;10.96;100.00
13422;BME280;6782;55.904;13.396;2022-10-22T03:50:29;100265.22;;;10.87;100.00
13422;BME280;6782;55.904;13.396;2022-10-22T03:53:17;100275.84;;;10.84;100.00
13422;BME280;6782;55.904;13.396;2022-10-22T03:56:07;100283.53;;;10.92;100.00
13422;BME280;6782;55.904;13.396;2022-10-22T03:58:55;100285.44;;;10.87;100.00
13422;BME280;6782;55.904;13.396;2022-10-22T04:01:44;100293.41;;;10.85;100.00
13422;BME280;6782;55.904;13.396;2022-10-22T04:04:32;100301.97;;;10.93;100.00
13422;BME280;6782;55.904;13.396;2022-10-22T04:07:19;100299.16;;;10.98;100.00
13422;BME280;6782;55.904;13.396;2022-10-22T04:10:06;100301.00;;;10.96;100.00
13422;BME280;6782;55.904;13.396;2022-10-22T04:12:54;100310.50;;;11.01;100.00
13422;BME280;6782;55.904;13.396;2022-10-22T04:15:41;100316.81;;;10.96;100.00
13422;BME280;6782;55.904;13.396;2022-10-22T04:18:30;100339.16;;;11.12;100.00
13422;BME280;6782;55.904;13.396;2022-10-22T04:21:18;100337.06;;;10.95;100.00
13422;BME280;6782;55.904;13.396;2022-10-22T04:24:05;100346.56;;;11.01;100.00
13422;BME280;6782;55.904;13.396;2022-10-22T04:26:53;100338.03;;;10.93;100.00
13422;BME280;6782;55.904;13.396;2022-10-22T04:29:40;100346.56;;;11.01;100.00
13422;BME280;6782;55.904;13.396;2022-10-22T04:32:27;100348.19;;;11.05;100.00
13422;BME280;6782;55.904;13.396;2022-10-22T04:35:16;100338.03;;;10.93;100.00
13422;BME280;6782;55.904;13.396;2022-10-22T04:38:03;100353.56;;;11.02;100.00
13422;BME280;6782;55.904;13.396;2022-10-22T04:40:50;100355.47;;;10.97;100.00
13422;BME280;6782;55.904;13.396;2022-10-22T04:43:37;100353.75;;;10.96;100.00
13422;BME280;6782;55.904;13.396;2022-10-22T04:46:26;100352.91;;;10.95;100.00
13422;BME280;6782;55.904;13.396;2022-10-22T04:49:13;100353.56;;;11.02;100.00
13422;BME280;6782;55.904;13.396;2022-10-22T04:52:02;100359.59;;;11.05;100.00
13422;BME280;6782;55.904;13.396;2022-10-22T04:54:49;100357.22;;;10.98;100.00
13422;BME280;6782;55.904;13.396;2022-10-22T04:57:36;100347.78;;;10.91;100.00
13422;BME280;6782;55.904;13.396;2022-10-22T05:00:23;100354.66;;;10.95;100.00
13422;BME280;6782;55.904;13.396;2022-10-22T05:03:10;100363.50;;;10.94;100.00
13422;BME280;6782;55.904;13.396;2022-10-22T05:05:59;100373.84;;;11.00;100.00
13422;BME280;6782;55.904;13.396;2022-10-22T05:08:51;100375.53;;;11.02;100.00
13422;BME280;6782;55.904;13.396;2022-10-22T05:11:39;100384.16;;;11.07;100.00
13422;BME280;6782;55.904;13.396;2022-10-22T05:14:30;100386.78;;;11.09;100.00
13422;BME280;6782;55.904;13.396;2022-10-22T05:17:17;100399.03;;;11.10;100.00
13422;BME280;6782;55.904;13.396;2022-10-22T05:20:05;100403.44;;;11.11;100.00
13422;BME280;6782;55.904;13.396;2022-10-22T05:22:52;100413.91;;;11.12;100.00
13422;BME280;6782;55.904;13.396;2022-10-22T05:25:40;100421.97;;;11.08;100.00
13422;BME280;6782;55.904;13.396;2022-10-22T05:28:27;100417.75;;;11.02;100.00
13422;BME280;6782;55.904;13.396;2022-10-22T05:31:15;100424.44;;;11.14;100.00
13422;BME280;6782;55.904;13.396;2022-10-22T05:34:02;100425.44;;;11.10;100.00
13422;BME280;6782;55.904;13.396;2022-10-22T05:36:49;100429.72;;;11.14;100.00
13422;BME280;6782;55.904;13.396;2022-10-22T05:39:36;100435.81;;;11.16;100.00
13422;BME280;6782;55.904;13.396;2022-10-22T05:42:30;100440.63;;;11.02;100.00
13422;BME280;6782;55.904;13.396;2022-10-22T05:45:17;100443.97;;;11.08;100.00
13422;BME280;6782;55.904;13.396;2022-10-22T05:48:05;100461.41;;;11.14;100.00
13422;BME280;6782;55.904;13.396;2022-10-22T05:50:52;100472.94;;;11.10;100.00
13422;BME280;6782;55.904;13.396;2022-10-22T05:53:41;100481.66;;;11.12;100.00
13422;BME280;6782;55.904;13.396;2022-10-22T05:56:29;100486.13;;;11.10;100.00
13422;BME280;6782;55.904;13.396;2022-10-22T05:59:19;100500.13;;;11.13;100.00
13422;BME280;6782;55.904;13.396;2022-10-22T06:02:08;100506.19;;;11.17;100.00
13422;BME280;6782;55.904;13.396;2022-10-22T06:04:55;100515.91;;;11.15;100.00
13422;BME280;6782;55.904;13.396;2022-10-22T06:07:42;100510.53;;;11.18;100.00
13422;BME280;6782;55.904;13.396;2022-10-22T06:10:30;100516.09;;;11.09;100.00
13422;BME280;6782;55.904;13.396;2022-10-22T06:13:17;100521.41;;;11.07;100.00
13422;BME280;6782;55.904;13.396;2022-10-22T06:16:06;100536.28;;;11.10;100.00
13422;BME280;6782;55.904;13.396;2022-10-22T06:18:53;100536.28;;;11.10;100.00
13422;BME280;6782;55.904;13.396;2022-10-22T06:21:40;100536.06;;;11.17;100.00
13422;BME280;6782;55.904;13.396;2022-10-22T06:24:27;100545.84;;;11.14;100.00
13422;BME280;6782;55.904;13.396;2022-10-22T06:27:14;100552.03;;;11.13;100.00
13422;BME280;6782;55.904;13.396;2022-10-22T06:30:01;100565.88;;;11.21;100.00
13422;BME280;6782;55.904;13.396;2022-10-22T06:32:50;100564.88;;;11.25;100.00
13422;BME280;6782;55.904;13.396;2022-10-22T06:35:37;100573.06;;;11.16;100.00
13422;BME280;6782;55.904;13.396;2022-10-22T06:38:24;100580.16;;;11.14;100.00
13422;BME280;6782;55.904;13.396;2022-10-22T06:41:13;100566.13;;;11.12;100.00
13422;BME280;6782;55.904;13.396;2022-10-22T06:44:01;100592.13;;;11.25;100.00
13422;BME280;6782;55.904;13.396;2022-10-22T06:46:48;100773.34;;;11.28;100.00
13422;BME280;6782;55.904;13.396;2022-10-22T06:49:38;100778.69;;;11.25;100.00
13422;BME280;6782;55.904;13.396;2022-10-22T06:52:25;100785.72;;;11.26;100.00
13422;BME280;6782;55.904;13.396;2022-10-22T06:55:12;100788.44;;;11.23;100.00
13422;BME280;6782;55.904;13.396;2022-10-22T06:57:59;100793.88;;;11.17;100.00
13422;BME280;6782;55.904;13.396;2022-10-22T07:00:46;100814.00;;;11.21;100.00
13422;BME280;6782;55.904;13.396;2022-10-22T07:03:34;100820.22;;;11.18;100.00
13422;BME280;6782;55.904;13.396;2022-10-22T07:06:24;100829.09;;;11.16;100.00
13422;BME280;6782;55.904;13.396;2022-10-22T07:09:11;100832.63;;;11.15;100.00
13422;BME280;6782;55.904;13.396;2022-10-22T07:11:58;100847.56;;;11.16;100.00
13422;BME280;6782;55.904;13.396;2022-10-22T07:14:46;100869.41;;;11.22;100.00
13422;BME280;6782;55.904;13.396;2022-10-22T07:17:33;100871.84;;;11.30;100.00
13422;BME280;6782;55.904;13.396;2022-10-22T07:20:20;100884.09;;;11.34;100.00
13422;BME280;6782;55.904;13.396;2022-10-22T07:23:08;100882.19;;;11.39;100.00
13422;BME280;6782;55.904;13.396;2022-10-22T07:25:55;100884.97;;;11.33;100.00
13422;BME280;6782;55.904;13.396;2022-10-22T07:28:42;100886.84;;;11.29;100.00
13422;BME280;6782;55.904;13.396;2022-10-22T07:31:29;100900.06;;;11.28;100.00
13422;BME280;6782;55.904;13.396;2022-10-22T07:34:17;100903.53;;;11.30;100.00
13422;BME280;6782;55.904;13.396;2022-10-22T07:37:04;100914.13;;;11.28;100.00
13422;BME280;6782;55.904;13.396;2022-10-22T07:39:52;100921.06;;;11.34;100.00
13422;BME280;6782;55.904;13.396;2022-10-22T07:42:39;100929.88;;;11.33;100.00
13422;BME280;6782;55.904;13.396;2022-10-22T07:45:27;100949.34;;;11.29;100.00
13422;BME280;6782;55.904;13.396;2022-10-22T07:48:14;100936.13;;;11.29;100.00
13422;BME280;6782;55.904;13.396;2022-10-22T07:51:02;100951.00;;;11.33;100.00
13422;BME280;6782;55.904;13.396;2022-10-22T07:53:50;100972.81;;;11.41;100.00
13422;BME280;6782;55.904;13.396;2022-10-22T07:56:39;100970.25;;;11.38;100.00
13422;BME280;6782;55.904;13.396;2022-10-22T07:59:26;100985.16;;;11.41;100.00
13422;BME280;6782;55.904;13.396;2022-10-22T08:02:13;100997.22;;;11.51;100.00
13422;BME280;6782;55.904;13.396;2022-10-22T08:05:00;101001.44;;;11.59;100.00
13422;BME280;6782;55.904;13.396;2022-10-22T08:07:47;101017.16;;;11.65;100.00
13422;BME280;6782;55.904;13.396;2022-10-22T08:10:34;101020.44;;;11.76;100.00
13422;BME280;6782;55.904;13.396;2022-10-22T08:13:23;101035.25;;;11.83;100.00
13422;BME280;6782;55.904;13.396;2022-10-22T08:16:12;101042.31;;;11.83;100.00
13422;BME280;6782;55.904;13.396;2022-10-22T08:19:00;101041.38;;;11.85;100.00
13422;BME280;6782;55.904;13.396;2022-10-22T08:21:47;101043.03;;;11.89;100.00
13422;BME280;6782;55.904;13.396;2022-10-22T08:24:34;101046.41;;;11.94;100.00
13422;BME280;6782;55.904;13.396;2022-10-22T08:27:21;101060.50;;;11.97;100.00
13422;BME280;6782;55.904;13.396;2022-10-22T08:30:11;101070.06;;;12.01;100.00
13422;BME280;6782;55.904;13.396;2022-10-22T08:32:58;101073.59;;;12.01;100.00
13422;BME280;6782;55.904;13.396;2022-10-22T08:35:49;101090.31;;;12.02;100.00
13422;BME280;6782;55.904;13.396;2022-10-22T08:38:37;101091.09;;;12.05;100.00
13422;BME280;6782;55.904;13.396;2022-10-22T08:41:25;101090.09;;;12.11;100.00
13422;BME280;6782;55.904;13.396;2022-10-22T08:44:23;101093.44;;;12.17;100.00
13422;BME280;6782;55.904;13.396;2022-10-22T08:47:29;101102.06;;;12.25;100.00
13422;BME280;6782;55.904;13.396;2022-10-22T08:50:22;101121.31;;;12.32;100.00
13422;BME280;6782;55.904;13.396;2022-10-22T08:53:13;101118.66;;;12.32;100.00
13422;BME280;6782;55.904;13.396;2022-10-22T08:56:01;101119.56;;;12.31;100.00
13422;BME280;6782;55.904;13.396;2022-10-22T08:58:52;101151.91;;;12.42;100.00
13422;BME280;6782;55.904;13.396;2022-10-22T09:01:45;101172.16;;;12.43;100.00
13422;BME280;6782;55.904;13.396;2022-10-22T09:04:38;101168.47;;;12.50;100.00
13422;BME280;6782;55.904;13.396;2022-10-22T09:07:32;101177.38;;;12.46;100.00
13422;BME280;6782;55.904;13.396;2022-10-22T09:10:29;101185.38;;;12.43;100.00
13422;BME280;6782;55.904;13.396;2022-10-22T09:13:20;101184.28;;;12.53;100.00
13422;BME280;6782;55.904;13.396;2022-10-22T09:16:15;101191.28;;;12.54;100.00
13422;BME280;6782;55.904;13.396;2022-10-22T09:19:11;101201.88;;;12.54;100.00
13422;BME280;6782;55.904;13.396;2022-10-22T09:22:09;101204.38;;;12.60;100.00
13422;BME280;6782;55.904;13.396;2022-10-22T09:25:10;101196.66;;;12.51;100.00
13422;BME280;6782;55.904;13.396;2022-10-22T09:27:59;101208.84;;;12.58;100.00
13422;BME280;6782;55.904;13.396;2022-10-22T09:30:47;101215.91;;;12.57;100.00
13422;BME280;6782;55.904;13.396;2022-10-22T09:33:34;101221.78;;;12.70;100.00
13422;BME280;6782;55.904;13.396;2022-10-22T09:36:22;101213.91;;;12.67;100.00
13422;BME280;6782;55.904;13.396;2022-10-22T09:39:24;101223.44;;;12.74;100.00
13422;BME280;6782;55.904;13.396;2022-10-22T09:42:15;101234.69;;;12.82;100.00
13422;BME280;6782;55.904;13.396;2022-10-22T09:45:03;101238.94;;;12.89;100.00
13422;BME280;6782;55.904;13.396;2022-10-22T09:48:02;101238.72;;;12.97;100.00
13422;BME280;6782;55.904;13.396;2022-10-22T09:50:59;101239.53;;;13.00;100.00
13422;BME280;6782;55.904;13.396;2022-10-22T09:53:55;101232.41;;;13.02;100.00
13422;BME280;6782;55.904;13.396;2022-10-22T09:56:51;101228.06;;;13.00;100.00
13422;BME280;6782;55.904;13.396;2022-10-22T09:59:40;101244.47;;;13.15;100.00
13422;BME280;6782;55.904;13.396;2022-10-22T10:02:28;101249.38;;;13.31;100.00
13422;BME280;6782;55.904;13.396;2022-10-22T10:05:17;101244.66;;;13.42;100.00
13422;BME280;6782;55.904;13.396;2022-10-22T10:08:12;101242.81;;;13.45;100.00
13422;BME280;6782;55.904;13.396;2022-10-22T10:11:02;101228.03;;;13.37;100.00
13422;BME280;6782;55.904;13.396;2022-10-22T10:14:00;101210.13;;;13.45;100.00
13422;BME280;6782;55.904;13.396;2022-10-22T10:16:56;101203.69;;;13.53;100.00
13422;BME280;6782;55.904;13.396;2022-10-22T10:19:53;101194.03;;;13.51;100.00
13422;BME280;6782;55.904;13.396;2022-10-22T10:22:48;101181.44;;;13.59;100.00
13422;BME280;6782;55.904;13.396;2022-10-22T10:25:47;101185.22;;;13.81;100.00
13422;BME280;6782;55.904;13.396;2022-10-22T10:28:45;62769.09;;;-143.06;100.00
13422;BME280;6782;55.904;13.396;2022-10-22T10:31:56;101185.22;;;13.81;100.00
13422;BME280;6782;55.904;13.396;2022-10-22T10:34:54;101095.81;;;13.86;100.00
13422;BME280;6782;55.904;13.396;2022-10-22T10:37:46;62769.09;;;-143.06;100.00
13422;BME280;6782;55.904;13.396;2022-10-22T10:40:41;62769.09;;;-143.06;100.00
13422;BME280;6782;55.904;13.396;2022-10-22T10:43:37;62769.09;;;-143.06;100.00
13422;BME280;6782;55.904;13.396;2022-10-22T10:46:37;101051.03;;;13.77;100.00
13422;BME280;6782;55.904;13.396;2022-10-22T10:49:30;62769.09;;;-143.06;100.00
13422;BME280;6782;55.904;13.396;2022-10-22T10:52:23;62769.09;;;-143.06;100.00
13422;BME280;6782;55.904;13.396;2022-10-22T10:55:19;62769.09;;;-143.06;100.00
13422;BME280;6782;55.904;13.396;2022-10-22T10:58:16;62769.09;;;-143.06;100.00
13422;BME280;6782;55.904;13.396;2022-10-22T11:01:12;62769.09;;;-143.06;100.00
13422;BME280;6782;55.904;13.396;2022-10-22T11:04:50;62769.09;;;-143.06;100.00
13422;BME280;6782;55.904;13.396;2022-10-22T11:07:48;62769.09;;;-143.06;100.00
13422;BME280;6782;55.904;13.396;2022-10-22T11:10:39;62769.09;;;-143.06;100.00
13422;BME280;6782;55.904;13.396;2022-10-22T11:13:30;62769.09;;;-143.06;100.00
13422;BME280;6782;55.904;13.396;2022-10-22T11:16:23;62769.09;;;-143.06;100.00
13422;BME280;6782;55.904;13.396;2022-10-22T11:19:19;62769.09;;;-143.06;100.00
13422;BME280;6782;55.904;13.396;2022-10-22T11:22:15;62769.09;;;-143.06;100.00
13422;BME280;6782;55.904;13.396;2022-10-22T11:25:14;62769.09;;;-143.06;100.00
13422;BME280;6782;55.904;13.396;2022-10-22T11:28:10;62769.09;;;-143.06;100.00
13422;BME280;6782;55.904;13.396;2022-10-22T11:31:01;62769.09;;;-143.06;100.00
13422;BME280;6782;55.904;13.396;2022-10-22T11:33:53;62769.09;;;-143.06;100.00
13422;BME280;6782;55.904;13.396;2022-10-22T11:36:44;62769.09;;;-143.06;100.00
13422;BME280;6782;55.904;13.396;2022-10-22T11:39:38;62769.09;;;-143.06;100.00
13422;BME280;6782;55.904;13.396;2022-10-22T11:42:32;62769.09;;;-143.06;100.00
13422;BME280;6782;55.904;13.396;2022-10-22T11:45:28;62769.09;;;-143.06;100.00
13422;BME280;6782;55.904;13.396;2022-10-22T11:48:17;62769.09;;;-143.06;100.00
13422;BME280;6782;55.904;13.396;2022-10-22T11:51:28;62769.09;;;-143.06;100.00
13422;BME280;6782;55.904;13.396;2022-10-22T11:54:44;62769.09;;;-143.06;100.00
13422;BME280;6782;55.904;13.396;2022-10-22T11:57:35;62769.09;;;-143.06;100.00
13422;BME280;6782;55.904;13.396;2022-10-22T12:00:33;62769.09;;;-143.06;100.00
13422;BME280;6782;55.904;13.396;2022-10-22T12:03:23;62769.09;;;-143.06;100.00
13422;BME280;6782;55.904;13.396;2022-10-22T12:06:26;62769.09;;;-143.06;100.00
13422;BME280;6782;55.904;13.396;2022-10-22T12:09:13;62769.09;;;-143.06;100.00
13422;BME280;6782;55.904;13.396;2022-10-22T12:12:11;62769.09;;;-143.06;100.00
13422;BME280;6782;55.904;13.396;2022-10-22T12:14:59;62769.09;;;-143.06;100.00
13422;BME280;6782;55.904;13.396;2022-10-22T12:17:47;62769.09;;;-143.06;100.00
13422;BME280;6782;55.904;13.396;2022-10-22T12:20:34;100773.28;;;13.85;100.00
13422;BME280;6782;55.904;13.396;2022-10-22T12:23:28;100773.28;;;13.85;100.00
13422;BME280;6782;55.904;13.396;2022-10-22T12:26:23;62769.09;;;-143.06;100.00
13422;BME280;6782;55.904;13.396;2022-10-22T12:29:14;62769.09;;;-143.06;100.00
13422;BME280;6782;55.904;13.396;2022-10-22T12:32:03;100761.97;;;13.80;100.00
13422;BME280;6782;55.904;13.396;2022-10-22T12:34:51;62769.09;;;-143.06;100.00
13422;BME280;6782;55.904;13.396;2022-10-22T12:37:39;62769.09;;;-143.06;100.00
13422;BME280;6782;55.904;13.396;2022-10-22T12:40:28;62769.09;;;-143.06;100.00
13422;BME280;6782;55.904;13.396;2022-10-22T12:43:17;62769.09;;;-143.06;100.00
13422;BME280;6782;55.904;13.396;2022-10-22T12:46:10;62769.09;;;-143.06;100.00
13422;BME280;6782;55.904;13.396;2022-10-22T12:48:59;62769.09;;;-143.06;100.00
13422;BME280;6782;55.904;13.396;2022-10-22T12:51:47;62769.09;;;-143.06;100.00
13422;BME280;6782;55.904;13.396;2022-10-22T12:54:35;62769.09;;;-143.06;100.00
13422;BME280;6782;55.904;13.396;2022-10-22T12:57:24;62769.09;;;-143.06;100.00
13422;BME280;6782;55.904;13.396;2022-10-22T13:00:22;62769.09;;;-143.06;100.00
13422;BME280;6782;55.904;13.396;2022-10-22T13:03:25;62769.09;;;-143.06;100.00
13422;BME280;6782;55.904;13.396;2022-10-22T13:06:19;62769.09;;;-143.06;100.00
13422;BME280;6782;55.904;13.396;2022-10-22T13:09:18;62769.09;;;-143.06;100.00
13422;BME280;6782;55.904;13.396;2022-10-22T13:12:07;62769.09;;;-143.06;100.00
13422;BME280;6782;55.904;13.396;2022-10-22T13:14:55;62769.09;;;-143.06;100.00
13422;BME280;6782;55.904;13.396;2022-10-22T13:17:42;62769.09;;;-143.06;100.00
13422;BME280;6782;55.904;13.396;2022-10-22T13:20:32;62769.09;;;-143.06;100.00
13422;BME280;6782;55.904;13.396;2022-10-22T13:23:24;62769.09;;;-143.06;100.00
13422;BME280;6782;55.904;13.396;2022-10-22T13:26:13;62769.09;;;-143.06;100.00
13422;BME280;6782;55.904;13.396;2022-10-22T13:29:02;62769.09;;;-143.06;100.00
13422;BME280;6782;55.904;13.396;2022-10-22T13:31:55;62769.09;;;-143.06;100.00
13422;BME280;6782;55.904;13.396;2022-10-22T13:34:43;62769.09;;;-143.06;100.00
13422;BME280;6782;55.904;13.396;2022-10-22T13:37:32;62769.09;;;-143.06;100.00
13422;BME280;6782;55.904;13.396;2022-10-22T13:40:20;62769.09;;;-143.06;100.00
13422;BME280;6782;55.904;13.396;2022-10-22T13:43:07;62769.09;;;-143.06;100.00
13422;BME280;6782;55.904;13.396;2022-10-22T13:45:57;100411.41;;;13.97;100.00
13422;BME280;6782;55.904;13.396;2022-10-22T13:48:46;62769.09;;;-143.06;100.00
13422;BME280;6782;55.904;13.396;2022-10-22T13:51:34;62769.09;;;-143.06;100.00
13422;BME280;6782;55.904;13.396;2022-10-22T13:54:23;62769.09;;;-143.06;100.00
13422;BME280;6782;55.904;13.396;2022-10-22T13:57:10;62769.09;;;-143.06;100.00
13422;BME280;6782;55.904;13.396;2022-10-22T13:59:57;62769.09;;;-143.06;100.00
13422;BME280;6782;55.904;13.396;2022-10-22T14:02:46;62769.09;;;-143.06;100.00
13422;BME280;6782;55.904;13.396;2022-10-22T14:05:34;62769.09;;;-143.06;100.00
13422;BME280;6782;55.904;13.396;2022-10-22T14:08:23;62769.09;;;-143.06;100.00
13422;BME280;6782;55.904;13.396;2022-10-22T14:11:13;62769.09;;;-143.06;100.00
13422;BME280;6782;55.904;13.396;2022-10-22T14:14:00;62769.09;;;-143.06;100.00
13422;BME280;6782;55.904;13.396;2022-10-22T14:16:49;62769.09;;;-143.06;100.00
13422;BME280;6782;55.904;13.396;2022-10-22T14:19:38;62769.09;;;-143.06;100.00
13422;BME280;6782;55.904;13.396;2022-10-22T14:22:26;62769.09;;;-143.06;100.00
13422;BME280;6782;55.904;13.396;2022-10-22T14:25:15;62769.09;;;-143.06;100.00
13422;BME280;6782;55.904;13.396;2022-10-22T14:28:04;62769.09;;;-143.06;100.00
13422;BME280;6782;55.904;13.396;2022-10-22T14:30:52;62769.09;;;-143.06;100.00
13422;BME280;6782;55.904;13.396;2022-10-22T14:33:40;62769.09;;;-143.06;100.00
13422;BME280;6782;55.904;13.396;2022-10-22T14:36:27;100190.00;;;13.68;100.00